sensor_id;sensor_type;location;lat;lon;timestamp;P1;durP1;ratioP1;P2;durP2;ratioP2
72483;SDS011;74199;52.014;5.430;2024-02-26T00:02:07;2.80;;;1.60;;
72483;SDS011;74199;52.014;5.430;2024-02-26T00:04:34;2.88;;;1.45;;
72483;SDS011;74199;52.014;5.430;2024-02-26T00:07:01;3.00;;;1.40;;
72483;SDS011;74199;52.014;5.430;2024-02-26T00:09:28;1.95;;;1.38;;
72483;SDS011;74199;52.014;5.430;2024-02-26T00:11:56;2.90;;;1.58;;
72483;SDS011;74199;52.014;5.430;2024-02-26T00:14:24;3.83;;;1.65;;
72483;SDS011;74199;52.014;5.430;2024-02-26T00:16:51;2.38;;;1.40;;
72483;SDS011;74199;52.014;5.430;2024-02-26T00:19:18;2.22;;;1.48;;
72483;SDS011;74199;52.014;5.430;2024-02-26T00:21:45;3.92;;;1.50;;
72483;SDS011;74199;52.014;5.430;2024-02-26T00:24:12;2.72;;;1.50;;
72483;SDS011;74199;52.014;5.430;2024-02-26T00:26:39;4.45;;;1.52;;
72483;SDS011;74199;52.014;5.430;2024-02-26T00:29:06;6.15;;;1.80;;
72483;SDS011;74199;52.014;5.430;2024-02-26T00:31:33;1.77;;;1.52;;
72483;SDS011;74199;52.014;5.430;2024-02-26T00:34:00;3.30;;;1.30;;
72483;SDS011;74199;52.014;5.430;2024-02-26T00:36:27;2.45;;;1.40;;
72483;SDS011;74199;52.014;5.430;2024-02-26T00:38:54;2.45;;;1.63;;
72483;SDS011;74199;52.014;5.430;2024-02-26T00:41:21;2.53;;;1.50;;
72483;SDS011;74199;52.014;5.430;2024-02-26T00:43:48;2.17;;;1.40;;
72483;SDS011;74199;52.014;5.430;2024-02-26T00:46:15;1.88;;;1.45;;
72483;SDS011;74199;52.014;5.430;2024-02-26T00:48:42;2.75;;;1.50;;
72483;SDS011;74199;52.014;5.430;2024-02-26T00:51:09;2.70;;;1.40;;
72483;SDS011;74199;52.014;5.430;2024-02-26T00:53:36;3.15;;;1.45;;
72483;SDS011;74199;52.014;5.430;2024-02-26T00:56:03;3.13;;;1.60;;
72483;SDS011;74199;52.014;5.430;2024-02-26T00:58:30;3.83;;;1.70;;
72483;SDS011;74199;52.014;5.430;2024-02-26T01:00:57;4.32;;;1.67;;
72483;SDS011;74199;52.014;5.430;2024-02-26T01:03:24;2.30;;;1.50;;
72483;SDS011;74199;52.014;5.430;2024-02-26T01:05:51;2.58;;;1.50;;
72483;SDS011;74199;52.014;5.430;2024-02-26T01:08:24;4.10;;;1.60;;
72483;SDS011;74199;52.014;5.430;2024-02-26T01:10:51;2.95;;;1.50;;
72483;SDS011;74199;52.014;5.430;2024-02-26T01:13:18;3.05;;;1.50;;
72483;SDS011;74199;52.014;5.430;2024-02-26T01:15:44;3.00;;;1.70;;
72483;SDS011;74199;52.014;5.430;2024-02-26T01:18:11;2.95;;;1.60;;
72483;SDS011;74199;52.014;5.430;2024-02-26T01:20:39;1.48;;;1.35;;
72483;SDS011;74199;52.014;5.430;2024-02-26T01:23:06;2.65;;;1.50;;
72483;SDS011;74199;52.014;5.430;2024-02-26T01:25:32;3.83;;;1.50;;
72483;SDS011;74199;52.014;5.430;2024-02-26T01:27:59;1.80;;;1.55;;
72483;SDS011;74199;52.014;5.430;2024-02-26T01:30:26;2.70;;;1.75;;
72483;SDS011;74199;52.014;5.430;2024-02-26T01:32:53;3.63;;;1.50;;
72483;SDS011;74199;52.014;5.430;2024-02-26T01:35:20;3.83;;;1.65;;
72483;SDS011;74199;52.014;5.430;2024-02-26T01:37:47;3.25;;;1.70;;
72483;SDS011;74199;52.014;5.430;2024-02-26T01:40:14;4.65;;;1.92;;
72483;SDS011;74199;52.014;5.430;2024-02-26T01:42:45;4.22;;;1.65;;
72483;SDS011;74199;52.014;5.430;2024-02-26T01:45:14;1.83;;;1.50;;
72483;SDS011;74199;52.014;5.430;2024-02-26T01:47:49;2.05;;;1.40;;
72483;SDS011;74199;52.014;5.430;2024-02-26T01:50:18;2.30;;;1.63;;
72483;SDS011;74199;52.014;5.430;2024-02-26T01:52:46;3.38;;;1.70;;
72483;SDS011;74199;52.014;5.430;2024-02-26T01:55:13;3.85;;;1.50;;
72483;SDS011;74199;52.014;5.430;2024-02-26T01:57:45;4.53;;;1.77;;
72483;SDS011;74199;52.014;5.430;2024-02-26T02:00:14;4.03;;;1.60;;
72483;SDS011;74199;52.014;5.430;2024-02-26T02:02:43;2.47;;;1.50;;
72483;SDS011;74199;52.014;5.430;2024-02-26T02:05:14;3.00;;;1.95;;
72483;SDS011;74199;52.014;5.430;2024-02-26T02:07:43;2.97;;;1.52;;
72483;SDS011;74199;52.014;5.430;2024-02-26T02:10:11;3.83;;;1.63;;
72483;SDS011;74199;52.014;5.430;2024-02-26T02:12:38;3.40;;;1.80;;
72483;SDS011;74199;52.014;5.430;2024-02-26T02:15:06;5.38;;;1.83;;
72483;SDS011;74199;52.014;5.430;2024-02-26T02:17:34;2.97;;;1.50;;
72483;SDS011;74199;52.014;5.430;2024-02-26T02:20:01;2.70;;;1.58;;
72483;SDS011;74199;52.014;5.430;2024-02-26T02:22:30;2.42;;;1.60;;
72483;SDS011;74199;52.014;5.430;2024-02-26T02:24:58;2.13;;;1.67;;
72483;SDS011;74199;52.014;5.430;2024-02-26T02:27:27;2.60;;;1.75;;
72483;SDS011;74199;52.014;5.430;2024-02-26T02:29:55;3.45;;;1.90;;
72483;SDS011;74199;52.014;5.430;2024-02-26T02:32:22;2.95;;;1.77;;
72483;SDS011;74199;52.014;5.430;2024-02-26T02:34:50;2.63;;;1.70;;
72483;SDS011;74199;52.014;5.430;2024-02-26T02:37:18;2.97;;;1.60;;
72483;SDS011;74199;52.014;5.430;2024-02-26T02:39:44;2.97;;;1.60;;
72483;SDS011;74199;52.014;5.430;2024-02-26T02:42:11;2.88;;;1.65;;
72483;SDS011;74199;52.014;5.430;2024-02-26T02:44:38;2.25;;;1.60;;
72483;SDS011;74199;52.014;5.430;2024-02-26T02:47:05;3.30;;;1.70;;
72483;SDS011;74199;52.014;5.430;2024-02-26T02:49:32;2.13;;;1.80;;
72483;SDS011;74199;52.014;5.430;2024-02-26T02:51:59;2.00;;;1.73;;
72483;SDS011;74199;52.014;5.430;2024-02-26T02:54:27;2.65;;;1.65;;
72483;SDS011;74199;52.014;5.430;2024-02-26T02:56:54;1.98;;;1.77;;
72483;SDS011;74199;52.014;5.430;2024-02-26T02:59:21;3.15;;;1.55;;
72483;SDS011;74199;52.014;5.430;2024-02-26T03:01:48;2.55;;;1.80;;
72483;SDS011;74199;52.014;5.430;2024-02-26T03:04:15;2.50;;;1.85;;
72483;SDS011;74199;52.014;5.430;2024-02-26T03:06:42;2.58;;;1.60;;
72483;SDS011;74199;52.014;5.430;2024-02-26T03:09:09;3.70;;;1.58;;
72483;SDS011;74199;52.014;5.430;2024-02-26T03:11:37;2.28;;;1.75;;
72483;SDS011;74199;52.014;5.430;2024-02-26T03:14:03;4.47;;;2.33;;
72483;SDS011;74199;52.014;5.430;2024-02-26T03:16:31;2.22;;;1.80;;
72483;SDS011;74199;52.014;5.430;2024-02-26T03:18:58;3.05;;;1.90;;
72483;SDS011;74199;52.014;5.430;2024-02-26T03:21:26;2.88;;;1.70;;
72483;SDS011;74199;52.014;5.430;2024-02-26T03:23:53;2.78;;;1.58;;
72483;SDS011;74199;52.014;5.430;2024-02-26T03:26:21;4.45;;;1.98;;
72483;SDS011;74199;52.014;5.430;2024-02-26T03:28:48;2.60;;;1.83;;
72483;SDS011;74199;52.014;5.430;2024-02-26T03:31:15;2.17;;;1.90;;
72483;SDS011;74199;52.014;5.430;2024-02-26T03:33:41;2.28;;;1.75;;
72483;SDS011;74199;52.014;5.430;2024-02-26T03:36:09;1.70;;;1.58;;
72483;SDS011;74199;52.014;5.430;2024-02-26T03:38:36;4.13;;;1.67;;
72483;SDS011;74199;52.014;5.430;2024-02-26T03:41:03;2.35;;;1.73;;
72483;SDS011;74199;52.014;5.430;2024-02-26T03:43:30;4.10;;;1.70;;
72483;SDS011;74199;52.014;5.430;2024-02-26T03:45:58;2.10;;;1.80;;
72483;SDS011;74199;52.014;5.430;2024-02-26T03:48:25;2.80;;;1.73;;
72483;SDS011;74199;52.014;5.430;2024-02-26T03:50:52;2.83;;;1.70;;
72483;SDS011;74199;52.014;5.430;2024-02-26T03:53:19;2.08;;;1.77;;
72483;SDS011;74199;52.014;5.430;2024-02-26T03:55:46;2.13;;;1.75;;
72483;SDS011;74199;52.014;5.430;2024-02-26T03:58:13;3.05;;;1.65;;
72483;SDS011;74199;52.014;5.430;2024-02-26T04:00:40;2.22;;;1.70;;
72483;SDS011;74199;52.014;5.430;2024-02-26T04:03:07;2.08;;;1.67;;
72483;SDS011;74199;52.014;5.430;2024-02-26T04:05:34;1.70;;;1.60;;
72483;SDS011;74199;52.014;5.430;2024-02-26T04:08:01;2.88;;;1.77;;
72483;SDS011;74199;52.014;5.430;2024-02-26T04:10:30;2.10;;;1.90;;
72483;SDS011;74199;52.014;5.430;2024-02-26T04:12:57;3.13;;;1.70;;
72483;SDS011;74199;52.014;5.430;2024-02-26T04:15:23;3.35;;;2.20;;
72483;SDS011;74199;52.014;5.430;2024-02-26T04:17:51;2.75;;;1.90;;
72483;SDS011;74199;52.014;5.430;2024-02-26T04:20:17;3.35;;;2.10;;
72483;SDS011;74199;52.014;5.430;2024-02-26T04:22:44;4.63;;;2.33;;
72483;SDS011;74199;52.014;5.430;2024-02-26T04:25:11;2.47;;;1.83;;
72483;SDS011;74199;52.014;5.430;2024-02-26T04:27:38;3.13;;;2.00;;
72483;SDS011;74199;52.014;5.430;2024-02-26T04:30:06;2.53;;;1.75;;
72483;SDS011;74199;52.014;5.430;2024-02-26T04:32:34;20.40;;;2.30;;
72483;SDS011;74199;52.014;5.430;2024-02-26T04:35:01;5.60;;;2.10;;
72483;SDS011;74199;52.014;5.430;2024-02-26T04:37:29;3.03;;;2.10;;
72483;SDS011;74199;52.014;5.430;2024-02-26T04:39:58;3.13;;;1.98;;
72483;SDS011;74199;52.014;5.430;2024-02-26T04:42:26;3.33;;;1.90;;
72483;SDS011;74199;52.014;5.430;2024-02-26T04:44:54;6.13;;;2.17;;
72483;SDS011;74199;52.014;5.430;2024-02-26T04:47:21;3.88;;;2.10;;
72483;SDS011;74199;52.014;5.430;2024-02-26T04:49:49;4.10;;;2.22;;
72483;SDS011;74199;52.014;5.430;2024-02-26T04:52:16;7.38;;;1.95;;
72483;SDS011;74199;52.014;5.430;2024-02-26T04:54:44;2.42;;;1.88;;
72483;SDS011;74199;52.014;5.430;2024-02-26T04:57:11;4.45;;;2.35;;
72483;SDS011;74199;52.014;5.430;2024-02-26T04:59:38;3.67;;;2.08;;
72483;SDS011;74199;52.014;5.430;2024-02-26T05:02:07;2.05;;;1.83;;
72483;SDS011;74199;52.014;5.430;2024-02-26T05:04:34;2.63;;;2.00;;
72483;SDS011;74199;52.014;5.430;2024-02-26T05:07:01;2.20;;;1.60;;
72483;SDS011;74199;52.014;5.430;2024-02-26T05:09:28;4.88;;;1.95;;
72483;SDS011;74199;52.014;5.430;2024-02-26T05:11:56;2.38;;;2.00;;
72483;SDS011;74199;52.014;5.430;2024-02-26T05:14:23;3.55;;;2.05;;
72483;SDS011;74199;52.014;5.430;2024-02-26T05:16:49;3.67;;;2.15;;
72483;SDS011;74199;52.014;5.430;2024-02-26T05:19:16;3.40;;;2.15;;
72483;SDS011;74199;52.014;5.430;2024-02-26T05:21:43;3.97;;;1.95;;
72483;SDS011;74199;52.014;5.430;2024-02-26T05:24:10;2.75;;;1.85;;
72483;SDS011;74199;52.014;5.430;2024-02-26T05:26:37;3.00;;;1.98;;
72483;SDS011;74199;52.014;5.430;2024-02-26T05:29:04;2.42;;;1.80;;
72483;SDS011;74199;52.014;5.430;2024-02-26T05:31:31;2.90;;;1.90;;
72483;SDS011;74199;52.014;5.430;2024-02-26T05:33:58;2.00;;;1.73;;
72483;SDS011;74199;52.014;5.430;2024-02-26T05:36:25;2.63;;;1.90;;
72483;SDS011;74199;52.014;5.430;2024-02-26T05:38:54;2.78;;;2.03;;
72483;SDS011;74199;52.014;5.430;2024-02-26T05:41:21;2.13;;;1.70;;
72483;SDS011;74199;52.014;5.430;2024-02-26T05:43:53;3.75;;;2.00;;
72483;SDS011;74199;52.014;5.430;2024-02-26T05:46:20;3.40;;;2.03;;
72483;SDS011;74199;52.014;5.430;2024-02-26T05:48:48;2.47;;;1.83;;
72483;SDS011;74199;52.014;5.430;2024-02-26T05:51:16;2.03;;;1.83;;
72483;SDS011;74199;52.014;5.430;2024-02-26T05:53:44;5.88;;;2.00;;
72483;SDS011;74199;52.014;5.430;2024-02-26T05:56:13;4.70;;;2.08;;
72483;SDS011;74199;52.014;5.430;2024-02-26T05:58:40;2.15;;;1.60;;
72483;SDS011;74199;52.014;5.430;2024-02-26T06:01:07;2.47;;;1.85;;
72483;SDS011;74199;52.014;5.430;2024-02-26T06:03:34;2.80;;;1.73;;
72483;SDS011;74199;52.014;5.430;2024-02-26T06:06:01;3.35;;;1.92;;
72483;SDS011;74199;52.014;5.430;2024-02-26T06:08:28;4.07;;;1.85;;
72483;SDS011;74199;52.014;5.430;2024-02-26T06:10:55;1.77;;;1.55;;
72483;SDS011;74199;52.014;5.430;2024-02-26T06:13:22;3.10;;;1.83;;
72483;SDS011;74199;52.014;5.430;2024-02-26T06:15:49;2.83;;;1.63;;
72483;SDS011;74199;52.014;5.430;2024-02-26T06:18:16;2.10;;;1.80;;
72483;SDS011;74199;52.014;5.430;2024-02-26T06:20:43;3.17;;;2.15;;
72483;SDS011;74199;52.014;5.430;2024-02-26T06:23:11;4.40;;;2.28;;
72483;SDS011;74199;52.014;5.430;2024-02-26T06:25:38;1.98;;;1.73;;
72483;SDS011;74199;52.014;5.430;2024-02-26T06:28:05;2.85;;;1.80;;
72483;SDS011;74199;52.014;5.430;2024-02-26T06:30:32;4.95;;;1.73;;
72483;SDS011;74199;52.014;5.430;2024-02-26T06:32:59;4.18;;;2.10;;
72483;SDS011;74199;52.014;5.430;2024-02-26T06:35:27;2.42;;;1.77;;
72483;SDS011;74199;52.014;5.430;2024-02-26T06:37:53;2.38;;;1.73;;
72483;SDS011;74199;52.014;5.430;2024-02-26T06:40:21;3.63;;;2.10;;
72483;SDS011;74199;52.014;5.430;2024-02-26T06:42:48;2.00;;;1.63;;
72483;SDS011;74199;52.014;5.430;2024-02-26T06:45:16;3.40;;;2.15;;
72483;SDS011;74199;52.014;5.430;2024-02-26T06:47:45;4.18;;;1.90;;
72483;SDS011;74199;52.014;5.430;2024-02-26T06:50:13;2.15;;;1.70;;
72483;SDS011;74199;52.014;5.430;2024-02-26T06:52:40;2.72;;;1.85;;
72483;SDS011;74199;52.014;5.430;2024-02-26T06:55:07;2.50;;;1.90;;
72483;SDS011;74199;52.014;5.430;2024-02-26T06:57:35;3.15;;;2.08;;
72483;SDS011;74199;52.014;5.430;2024-02-26T07:00:02;2.58;;;1.85;;
72483;SDS011;74199;52.014;5.430;2024-02-26T07:02:31;2.78;;;1.92;;
72483;SDS011;74199;52.014;5.430;2024-02-26T07:04:58;3.08;;;2.00;;
72483;SDS011;74199;52.014;5.430;2024-02-26T07:07:25;4.43;;;1.85;;
72483;SDS011;74199;52.014;5.430;2024-02-26T07:09:52;3.15;;;1.92;;
72483;SDS011;74199;52.014;5.430;2024-02-26T07:12:19;8.35;;;2.22;;
72483;SDS011;74199;52.014;5.430;2024-02-26T07:14:48;5.38;;;2.30;;
72483;SDS011;74199;52.014;5.430;2024-02-26T07:17:16;3.63;;;2.30;;
72483;SDS011;74199;52.014;5.430;2024-02-26T07:19:43;2.35;;;2.00;;
72483;SDS011;74199;52.014;5.430;2024-02-26T07:22:10;3.72;;;2.42;;
72483;SDS011;74199;52.014;5.430;2024-02-26T07:24:36;3.95;;;2.60;;
72483;SDS011;74199;52.014;5.430;2024-02-26T07:27:03;3.70;;;2.22;;
72483;SDS011;74199;52.014;5.430;2024-02-26T07:29:31;3.60;;;2.50;;
72483;SDS011;74199;52.014;5.430;2024-02-26T07:31:58;3.10;;;2.28;;
72483;SDS011;74199;52.014;5.430;2024-02-26T07:34:24;4.97;;;2.65;;
72483;SDS011;74199;52.014;5.430;2024-02-26T07:36:56;5.95;;;2.80;;
72483;SDS011;74199;52.014;5.430;2024-02-26T07:39:23;6.03;;;2.97;;
72483;SDS011;74199;52.014;5.430;2024-02-26T07:41:50;4.90;;;2.75;;
72483;SDS011;74199;52.014;5.430;2024-02-26T07:44:19;3.67;;;2.53;;
72483;SDS011;74199;52.014;5.430;2024-02-26T07:46:47;4.63;;;2.80;;
72483;SDS011;74199;52.014;5.430;2024-02-26T07:49:13;5.88;;;2.60;;
72483;SDS011;74199;52.014;5.430;2024-02-26T07:51:41;5.82;;;2.85;;
72483;SDS011;74199;52.014;5.430;2024-02-26T07:54:08;6.25;;;3.10;;
72483;SDS011;74199;52.014;5.430;2024-02-26T07:56:35;8.63;;;3.22;;
72483;SDS011;74199;52.014;5.430;2024-02-26T07:59:02;15.88;;;8.73;;
72483;SDS011;74199;52.014;5.430;2024-02-26T08:01:29;12.45;;;6.75;;
72483;SDS011;74199;52.014;5.430;2024-02-26T08:03:56;9.55;;;5.97;;
72483;SDS011;74199;52.014;5.430;2024-02-26T08:06:23;9.65;;;5.28;;
72483;SDS011;74199;52.014;5.430;2024-02-26T08:08:51;6.72;;;4.70;;
72483;SDS011;74199;52.014;5.430;2024-02-26T08:11:18;7.65;;;4.50;;
72483;SDS011;74199;52.014;5.430;2024-02-26T08:13:45;8.55;;;4.95;;
72483;SDS011;74199;52.014;5.430;2024-02-26T08:16:12;8.93;;;4.95;;
72483;SDS011;74199;52.014;5.430;2024-02-26T08:18:39;8.32;;;4.15;;
72483;SDS011;74199;52.014;5.430;2024-02-26T08:21:06;9.30;;;3.85;;
72483;SDS011;74199;52.014;5.430;2024-02-26T08:23:35;7.38;;;4.47;;
72483;SDS011;74199;52.014;5.430;2024-02-26T08:26:02;7.43;;;4.55;;
72483;SDS011;74199;52.014;5.430;2024-02-26T08:28:30;7.55;;;3.58;;
72483;SDS011;74199;52.014;5.430;2024-02-26T08:30:57;11.35;;;3.97;;
72483;SDS011;74199;52.014;5.430;2024-02-26T08:33:24;7.90;;;4.00;;
72483;SDS011;74199;52.014;5.430;2024-02-26T08:35:52;8.57;;;3.80;;
72483;SDS011;74199;52.014;5.430;2024-02-26T08:38:19;7.13;;;4.15;;
72483;SDS011;74199;52.014;5.430;2024-02-26T08:40:45;6.18;;;3.90;;
72483;SDS011;74199;52.014;5.430;2024-02-26T08:43:12;6.25;;;3.70;;
72483;SDS011;74199;52.014;5.430;2024-02-26T08:45:39;6.43;;;3.80;;
72483;SDS011;74199;52.014;5.430;2024-02-26T08:48:06;6.72;;;3.90;;
72483;SDS011;74199;52.014;5.430;2024-02-26T08:50:34;6.43;;;3.60;;
72483;SDS011;74199;52.014;5.430;2024-02-26T08:53:01;10.82;;;3.90;;
72483;SDS011;74199;52.014;5.430;2024-02-26T08:55:33;6.55;;;3.90;;
72483;SDS011;74199;52.014;5.430;2024-02-26T08:58:00;7.70;;;4.05;;
72483;SDS011;74199;52.014;5.430;2024-02-26T09:00:27;6.82;;;3.70;;
72483;SDS011;74199;52.014;5.430;2024-02-26T09:02:54;5.97;;;3.80;;
72483;SDS011;74199;52.014;5.430;2024-02-26T09:05:21;7.07;;;3.92;;
72483;SDS011;74199;52.014;5.430;2024-02-26T09:07:47;6.43;;;3.45;;
72483;SDS011;74199;52.014;5.430;2024-02-26T09:10:14;6.50;;;3.30;;
72483;SDS011;74199;52.014;5.430;2024-02-26T09:12:41;7.45;;;2.95;;
72483;SDS011;74199;52.014;5.430;2024-02-26T09:15:08;4.80;;;2.92;;
72483;SDS011;74199;52.014;5.430;2024-02-26T09:17:36;6.28;;;3.17;;
72483;SDS011;74199;52.014;5.430;2024-02-26T09:20:04;6.53;;;3.42;;
72483;SDS011;74199;52.014;5.430;2024-02-26T09:22:32;4.63;;;3.22;;
72483;SDS011;74199;52.014;5.430;2024-02-26T09:25:01;4.85;;;2.80;;
72483;SDS011;74199;52.014;5.430;2024-02-26T09:27:28;3.58;;;2.72;;
72483;SDS011;74199;52.014;5.430;2024-02-26T09:29:57;4.22;;;2.63;;
72483;SDS011;74199;52.014;5.430;2024-02-26T09:32:24;5.55;;;3.08;;
72483;SDS011;74199;52.014;5.430;2024-02-26T09:34:51;3.63;;;2.40;;
72483;SDS011;74199;52.014;5.430;2024-02-26T09:37:21;4.03;;;2.65;;
72483;SDS011;74199;52.014;5.430;2024-02-26T09:39:48;3.80;;;2.67;;
72483;SDS011;74199;52.014;5.430;2024-02-26T09:42:16;5.43;;;2.50;;
72483;SDS011;74199;52.014;5.430;2024-02-26T09:44:45;5.00;;;2.30;;
72483;SDS011;74199;52.014;5.430;2024-02-26T09:47:14;4.47;;;2.28;;
72483;SDS011;74199;52.014;5.430;2024-02-26T09:49:43;6.93;;;2.40;;
72483;SDS011;74199;52.014;5.430;2024-02-26T09:52:10;5.13;;;2.60;;
72483;SDS011;74199;52.014;5.430;2024-02-26T09:54:38;4.82;;;2.65;;
72483;SDS011;74199;52.014;5.430;2024-02-26T09:57:06;2.58;;;1.80;;
72483;SDS011;74199;52.014;5.430;2024-02-26T09:59:41;3.17;;;2.40;;
72483;SDS011;74199;52.014;5.430;2024-02-26T10:02:13;4.53;;;2.30;;
72483;SDS011;74199;52.014;5.430;2024-02-26T10:04:45;4.57;;;2.42;;
72483;SDS011;74199;52.014;5.430;2024-02-26T10:09:45;3.30;;;2.05;;
72483;SDS011;74199;52.014;5.430;2024-02-26T10:12:11;4.45;;;2.13;;
72483;SDS011;74199;52.014;5.430;2024-02-26T10:14:39;2.97;;;1.83;;
72483;SDS011;74199;52.014;5.430;2024-02-26T10:17:07;3.08;;;2.00;;
72483;SDS011;74199;52.014;5.430;2024-02-26T10:19:35;3.35;;;2.00;;
72483;SDS011;74199;52.014;5.430;2024-02-26T10:22:04;3.25;;;1.60;;
72483;SDS011;74199;52.014;5.430;2024-02-26T10:24:32;2.40;;;1.63;;
72483;SDS011;74199;52.014;5.430;2024-02-26T10:27:01;3.38;;;1.95;;
72483;SDS011;74199;52.014;5.430;2024-02-26T10:29:29;2.33;;;1.83;;
72483;SDS011;74199;52.014;5.430;2024-02-26T10:31:56;8.40;;;2.17;;
72483;SDS011;74199;52.014;5.430;2024-02-26T10:34:23;3.90;;;1.70;;
72483;SDS011;74199;52.014;5.430;2024-02-26T10:36:50;2.72;;;1.70;;
72483;SDS011;74199;52.014;5.430;2024-02-26T10:39:20;2.22;;;1.83;;
72483;SDS011;74199;52.014;5.430;2024-02-26T10:41:48;2.58;;;1.40;;
72483;SDS011;74199;52.014;5.430;2024-02-26T10:44:16;2.83;;;1.42;;
72483;SDS011;74199;52.014;5.430;2024-02-26T10:46:46;3.00;;;1.52;;
72483;SDS011;74199;52.014;5.430;2024-02-26T10:49:16;10.07;;;1.70;;
72483;SDS011;74199;52.014;5.430;2024-02-26T10:51:48;1.80;;;1.40;;
72483;SDS011;74199;52.014;5.430;2024-02-26T10:54:26;3.47;;;1.63;;
72483;SDS011;74199;52.014;5.430;2024-02-26T10:56:56;2.10;;;1.60;;
72483;SDS011;74199;52.014;5.430;2024-02-26T10:59:24;2.72;;;1.70;;
72483;SDS011;74199;52.014;5.430;2024-02-26T11:01:51;1.88;;;1.40;;
72483;SDS011;74199;52.014;5.430;2024-02-26T11:04:19;2.92;;;1.45;;
72483;SDS011;74199;52.014;5.430;2024-02-26T11:06:48;2.85;;;1.60;;
72483;SDS011;74199;52.014;5.430;2024-02-26T11:09:17;1.95;;;1.50;;
72483;SDS011;74199;52.014;5.430;2024-02-26T11:11:46;1.92;;;1.40;;
72483;SDS011;74199;52.014;5.430;2024-02-26T11:14:14;2.05;;;1.80;;
72483;SDS011;74199;52.014;5.430;2024-02-26T11:16:43;1.67;;;1.50;;
72483;SDS011;74199;52.014;5.430;2024-02-26T11:19:11;1.60;;;1.27;;
72483;SDS011;74199;52.014;5.430;2024-02-26T11:21:40;2.58;;;1.45;;
72483;SDS011;74199;52.014;5.430;2024-02-26T11:24:09;2.10;;;1.58;;
72483;SDS011;74199;52.014;5.430;2024-02-26T11:27:00;1.48;;;1.23;;
72483;SDS011;74199;52.014;5.430;2024-02-26T11:29:41;2.05;;;1.35;;
72483;SDS011;74199;52.014;5.430;2024-02-26T11:32:16;3.08;;;1.33;;
72483;SDS011;74199;52.014;5.430;2024-02-26T11:34:44;4.20;;;1.60;;
72483;SDS011;74199;52.014;5.430;2024-02-26T11:37:14;2.08;;;1.40;;
72483;SDS011;74199;52.014;5.430;2024-02-26T11:39:43;1.70;;;1.42;;
72483;SDS011;74199;52.014;5.430;2024-02-26T11:42:15;1.58;;;1.27;;
72483;SDS011;74199;52.014;5.430;2024-02-26T11:44:42;3.03;;;1.48;;
72483;SDS011;74199;52.014;5.430;2024-02-26T11:47:10;3.10;;;1.70;;
72483;SDS011;74199;52.014;5.430;2024-02-26T11:49:38;3.85;;;1.50;;
72483;SDS011;74199;52.014;5.430;2024-02-26T11:52:09;1.92;;;1.50;;
72483;SDS011;74199;52.014;5.430;2024-02-26T11:54:39;2.35;;;1.65;;
72483;SDS011;74199;52.014;5.430;2024-02-26T12:02:49;2.88;;;1.38;;
72483;SDS011;74199;52.014;5.430;2024-02-26T12:05:32;1.98;;;1.45;;
72483;SDS011;74199;52.014;5.430;2024-02-26T12:08:01;2.10;;;1.58;;
72483;SDS011;74199;52.014;5.430;2024-02-26T12:10:35;1.67;;;1.33;;
72483;SDS011;74199;52.014;5.430;2024-02-26T12:13:11;2.10;;;1.50;;
72483;SDS011;74199;52.014;5.430;2024-02-26T12:15:46;3.35;;;1.30;;
72483;SDS011;74199;52.014;5.430;2024-02-26T12:18:22;1.92;;;1.33;;
72483;SDS011;74199;52.014;5.430;2024-02-26T12:20:59;2.55;;;1.48;;
72483;SDS011;74199;52.014;5.430;2024-02-26T12:23:27;4.43;;;1.58;;
72483;SDS011;74199;52.014;5.430;2024-02-26T12:26:00;1.98;;;1.60;;
72483;SDS011;74199;52.014;5.430;2024-02-26T12:28:32;3.08;;;1.70;;
72483;SDS011;74199;52.014;5.430;2024-02-26T12:31:00;2.78;;;1.80;;
72483;SDS011;74199;52.014;5.430;2024-02-26T12:33:27;4.25;;;1.70;;
72483;SDS011;74199;52.014;5.430;2024-02-26T12:35:56;3.72;;;1.65;;
72483;SDS011;74199;52.014;5.430;2024-02-26T12:38:23;2.10;;;1.60;;
72483;SDS011;74199;52.014;5.430;2024-02-26T12:40:50;3.15;;;1.77;;
72483;SDS011;74199;52.014;5.430;2024-02-26T12:43:17;1.73;;;1.33;;
72483;SDS011;74199;52.014;5.430;2024-02-26T12:45:44;2.95;;;1.48;;
72483;SDS011;74199;52.014;5.430;2024-02-26T12:48:13;3.08;;;1.70;;
72483;SDS011;74199;52.014;5.430;2024-02-26T12:50:44;2.60;;;1.55;;
72483;SDS011;74199;52.014;5.430;2024-02-26T12:53:13;2.60;;;1.70;;
72483;SDS011;74199;52.014;5.430;2024-02-26T12:55:41;2.60;;;1.65;;
72483;SDS011;74199;52.014;5.430;2024-02-26T12:58:09;2.22;;;1.80;;
72483;SDS011;74199;52.014;5.430;2024-02-26T13:00:37;2.30;;;1.67;;
72483;SDS011;74199;52.014;5.430;2024-02-26T13:03:05;1.90;;;1.55;;
72483;SDS011;74199;52.014;5.430;2024-02-26T13:05:32;1.58;;;1.48;;
72483;SDS011;74199;52.014;5.430;2024-02-26T13:08:00;2.30;;;1.60;;
72483;SDS011;74199;52.014;5.430;2024-02-26T13:10:31;2.00;;;1.60;;
72483;SDS011;74199;52.014;5.430;2024-02-26T13:12:58;1.63;;;1.50;;
72483;SDS011;74199;52.014;5.430;2024-02-26T13:15:29;2.08;;;1.52;;
72483;SDS011;74199;52.014;5.430;2024-02-26T13:17:56;1.67;;;1.42;;
72483;SDS011;74199;52.014;5.430;2024-02-26T13:20:29;1.75;;;1.35;;
72483;SDS011;74199;52.014;5.430;2024-02-26T13:23:01;1.52;;;1.40;;
72483;SDS011;74199;52.014;5.430;2024-02-26T13:25:33;4.00;;;1.50;;
72483;SDS011;74199;52.014;5.430;2024-02-26T13:28:16;3.13;;;1.50;;
72483;SDS011;74199;52.014;5.430;2024-02-26T13:30:51;4.32;;;1.45;;
72483;SDS011;74199;52.014;5.430;2024-02-26T13:33:19;2.45;;;1.17;;
72483;SDS011;74199;52.014;5.430;2024-02-26T13:35:48;5.10;;;1.60;;
72483;SDS011;74199;52.014;5.430;2024-02-26T13:38:16;1.75;;;1.40;;
72483;SDS011;74199;52.014;5.430;2024-02-26T13:40:43;2.22;;;1.70;;
72483;SDS011;74199;52.014;5.430;2024-02-26T13:43:10;2.05;;;1.50;;
72483;SDS011;74199;52.014;5.430;2024-02-26T13:45:37;2.75;;;1.25;;
72483;SDS011;74199;52.014;5.430;2024-02-26T13:48:06;3.10;;;1.40;;
72483;SDS011;74199;52.014;5.430;2024-02-26T13:50:40;4.40;;;1.38;;
72483;SDS011;74199;52.014;5.430;2024-02-26T13:53:10;1.65;;;1.20;;
72483;SDS011;74199;52.014;5.430;2024-02-26T13:55:37;2.25;;;1.35;;
72483;SDS011;74199;52.014;5.430;2024-02-26T13:58:06;1.63;;;1.27;;
72483;SDS011;74199;52.014;5.430;2024-02-26T14:00:33;2.10;;;1.55;;
72483;SDS011;74199;52.014;5.430;2024-02-26T14:03:01;8.68;;;1.40;;
72483;SDS011;74199;52.014;5.430;2024-02-26T14:05:29;2.05;;;1.63;;
72483;SDS011;74199;52.014;5.430;2024-02-26T14:07:56;2.25;;;1.50;;
72483;SDS011;74199;52.014;5.430;2024-02-26T14:10:24;2.05;;;1.38;;
72483;SDS011;74199;52.014;5.430;2024-02-26T14:12:52;2.00;;;1.15;;
72483;SDS011;74199;52.014;5.430;2024-02-26T14:15:19;2.17;;;1.25;;
72483;SDS011;74199;52.014;5.430;2024-02-26T14:17:46;2.10;;;1.30;;
72483;SDS011;74199;52.014;5.430;2024-02-26T14:20:20;2.60;;;1.30;;
72483;SDS011;74199;52.014;5.430;2024-02-26T14:22:48;2.03;;;1.38;;
72483;SDS011;74199;52.014;5.430;2024-02-26T14:25:15;1.67;;;1.35;;
72483;SDS011;74199;52.014;5.430;2024-02-26T14:27:42;2.28;;;1.40;;
72483;SDS011;74199;52.014;5.430;2024-02-26T14:30:09;2.78;;;1.23;;
72483;SDS011;74199;52.014;5.430;2024-02-26T14:32:36;5.13;;;1.27;;
72483;SDS011;74199;52.014;5.430;2024-02-26T14:35:05;1.92;;;1.50;;
72483;SDS011;74199;52.014;5.430;2024-02-26T14:40:14;2.20;;;1.25;;
72483;SDS011;74199;52.014;5.430;2024-02-26T14:42:42;3.35;;;1.30;;
72483;SDS011;74199;52.014;5.430;2024-02-26T14:45:09;2.08;;;1.25;;
72483;SDS011;74199;52.014;5.430;2024-02-26T14:47:38;1.92;;;1.45;;
72483;SDS011;74199;52.014;5.430;2024-02-26T14:50:05;1.80;;;1.10;;
72483;SDS011;74199;52.014;5.430;2024-02-26T14:52:33;1.42;;;1.33;;
72483;SDS011;74199;52.014;5.430;2024-02-26T14:54:59;1.73;;;1.20;;
72483;SDS011;74199;52.014;5.430;2024-02-26T14:57:26;2.00;;;1.20;;
72483;SDS011;74199;52.014;5.430;2024-02-26T14:59:53;1.02;;;0.93;;
72483;SDS011;74199;52.014;5.430;2024-02-26T15:02:20;1.60;;;1.10;;
72483;SDS011;74199;52.014;5.430;2024-02-26T15:04:47;4.43;;;1.10;;